aviador You're here:

TIST Decoded Metar

ST. THOMAS in VIRGIN ISL.
Report Time2017-07-22 21:53:00
UTC Time2017-07-22 22:40:53
Flight Rules vfr VFR
Wind070° at 05 kt
W.Decomp.*RWY 10: 4.8 kt HW 1.5 kt LCW
W.Rank070° ranks 4
Current wind is below 070° avg. (8.1)
Visibility9999 m
Phenomena:N/A
Clouds:Few 023 Hf
Scattered 038 Hf
Expected CloudBase > 1,200 ft AGL from Temp-Dew spread
CeilingNone
Temp29°C (ISA +14)
Dew Point26°C (84% RH)
Heat Index35.6°C
QNH1016 hPa
Density Alt1,975 ft
Elevation23 ft
Report Wrong Elevation
Raw Report
TIST 222153Z 07005KT 10SM FEW023 SCT038 29/26 A3000=

Extra information for TIST:More info

Metar Taf Metar & Taf Last 4 Metars F.Rules Stats Wind Profile Meteogram Temp Stats Airport Information Weather charts Add Link Nearby VenuesMetar ALERT Operation Metar Decoded Social comments